Time;durP1;ratioP1;P1;durP2;ratioP2;P2;SDS_P1;SDS_P2;PMS_P1;PMS_P2;Temp;Humidity;BMP_temperature;BMP_pressure;BME280_temperature;BME280_humidity;BME280_pressure;Samples;Min_cycle;Max_cycle;Signal;HPM_P1;HPM_P2
2022/12/22 03:27:07;;;;;;;0.60;0.60;;;;;;;;;;5054502;28;20258;-77
2022/12/22 03:29:33;;;;;;;0.63;0.63;;;;;;;;;;5054468;28;20548;-81
2022/12/22 03:31:58;;;;;;;0.50;0.50;;;;;;;;;;5053656;28;20234;-78
2022/12/22 03:34:24;;;;;;;0.60;0.60;;;;;;;;;;5054287;28;20197;-78
2022/12/22 03:36:50;;;;;;;0.70;0.70;;;;;;;;;;5054204;28;20266;-77
2022/12/22 03:39:16;;;;;;;0.50;0.50;;;;;;;;;;5053978;28;20601;-78
2022/12/22 03:47:11;;;;;;;0.60;0.60;;;;;;;;;;5054234;28;20609;-78
2022/12/22 03:49:37;;;;;;;0.70;0.70;;;;;;;;;;5053874;28;20179;-77
2022/12/22 03:52:03;;;;;;;0.60;0.60;;;;;;;;;;5053507;28;20215;-78
2022/12/22 03:54:29;;;;;;;0.60;0.60;;;;;;;;;;5053985;28;20230;-78
2022/12/22 03:56:55;;;;;;;0.60;0.60;;;;;;;;;;5053734;28;20358;-78
2022/12/22 03:59:21;;;;;;;0.67;0.67;;;;;;;;;;5053953;28;20270;-78
2022/12/22 04:01:50;;;;;;;0.60;0.60;;;;;;;;;;5053593;28;20175;-78
2022/12/22 04:04:18;;;;;;;0.60;0.60;;;;;;;;;;5052907;28;20203;-78
2022/12/22 04:06:44;;;;;;;0.70;0.70;;;;;;;;;;5053555;28;20719;-78
2022/12/22 04:09:10;;;;;;;0.60;0.60;;;;;;;;;;5053780;28;20175;-78
2022/12/22 04:14:21;;;;;;;0.73;0.73;;;;;;;;;;5054185;28;20252;-78
2022/12/22 04:16:47;;;;;;;0.70;0.70;;;;;;;;;;5054712;28;20499;-78
2022/12/22 04:19:14;;;;;;;0.67;0.67;;;;;;;;;;5054138;28;20272;-78
2022/12/22 04:21:41;;;;;;;0.70;0.70;;;;;;;;;;5053375;28;20187;-78
2022/12/22 04:24:07;;;;;;;0.77;0.77;;;;;;;;;;5054227;28;20218;-78
2022/12/22 04:26:33;;;;;;;0.77;0.77;;;;;;;;;;5054812;28;20264;-78
2022/12/22 04:28:59;;;;;;;0.70;0.70;;;;;;;;;;5054008;28;20183;-78
2022/12/22 04:31:25;;;;;;;0.60;0.60;;;;;;;;;;5055208;28;20210;-78
2022/12/22 04:33:50;;;;;;;0.80;0.80;;;;;;;;;;5053734;28;20588;-77
2022/12/22 04:36:17;;;;;;;0.67;0.67;;;;;;;;;;5052973;28;20587;-77
2022/12/22 04:38:43;;;;;;;0.60;0.60;;;;;;;;;;5052890;28;20187;-78
2022/12/22 04:41:09;;;;;;;0.67;0.67;;;;;;;;;;5053115;28;20183;-77
2022/12/22 04:43:35;;;;;;;0.70;0.70;;;;;;;;;;5052073;28;20195;-77
2022/12/22 04:46:02;;;;;;;0.70;0.70;;;;;;;;;;5052021;28;20187;-77
2022/12/22 04:48:28;;;;;;;0.70;0.70;;;;;;;;;;5052595;28;20209;-77
2022/12/22 04:50:55;;;;;;;0.60;0.60;;;;;;;;;;5052305;28;20680;-77
2022/12/22 04:53:22;;;;;;;0.57;0.57;;;;;;;;;;5051976;28;20202;-77
2022/12/22 04:55:48;;;;;;;0.60;0.60;;;;;;;;;;5052392;28;20262;-77
2022/12/22 04:58:15;;;;;;;0.70;0.70;;;;;;;;;;5051838;28;20171;-76
2022/12/22 05:00:41;;;;;;;0.70;0.70;;;;;;;;;;5052172;28;20274;-77
2022/12/22 05:03:07;;;;;;;0.60;0.60;;;;;;;;;;5051770;28;20221;-76
2022/12/22 05:05:34;;;;;;;0.60;0.60;;;;;;;;;;5050759;28;20282;-76
2022/12/22 05:08:00;;;;;;;0.60;0.60;;;;;;;;;;5052198;28;20632;-76
2022/12/22 05:10:25;;;;;;;0.60;0.60;;;;;;;;;;5052040;28;20253;-77
2022/12/22 05:12:54;;;;;;;0.70;0.70;;;;;;;;;;5051386;28;20253;-77
2022/12/22 05:15:38;;;;;;;0.60;0.60;;;;;;;;;;5051951;28;20171;-77
2022/12/22 05:18:05;;;;;;;0.70;0.70;;;;;;;;;;5051750;28;20170;-77
2022/12/22 05:20:31;;;;;;;0.50;0.50;;;;;;;;;;5051054;28;20266;-77
2022/12/22 05:22:57;;;;;;;0.60;0.60;;;;;;;;;;5051274;28;20281;-76
2022/12/22 05:25:23;;;;;;;0.70;0.70;;;;;;;;;;5051784;28;20186;-76
2022/12/22 05:27:50;;;;;;;0.73;0.73;;;;;;;;;;5052009;28;20197;-77
2022/12/22 05:30:17;;;;;;;0.70;0.70;;;;;;;;;;5051572;28;20722;-76
2022/12/22 05:32:43;;;;;;;0.67;0.67;;;;;;;;;;5051063;28;20214;-76
2022/12/22 05:35:09;;;;;;;0.60;0.60;;;;;;;;;;5051616;28;20175;-76
2022/12/22 05:37:35;;;;;;;0.70;0.70;;;;;;;;;;5051437;28;20537;-76
2022/12/22 05:40:01;;;;;;;0.57;0.57;;;;;;;;;;5050590;28;20777;-75
2022/12/22 05:42:36;;;;;;;0.70;0.70;;;;;;;;;;5049620;28;20613;-76
2022/12/22 05:45:03;;;;;;;0.63;0.63;;;;;;;;;;5048449;28;20177;-77
2022/12/22 05:47:29;;;;;;;0.60;0.60;;;;;;;;;;5050856;28;20592;-78
2022/12/22 05:49:55;;;;;;;0.60;0.60;;;;;;;;;;5051344;28;20175;-76
2022/12/22 05:52:39;;;;;;;0.60;0.60;;;;;;;;;;5108432;27;20499;-74
2022/12/22 05:55:05;;;;;;;0.70;0.70;;;;;;;;;;5109087;28;20630;-76
2022/12/22 05:57:31;;;;;;;0.60;0.60;;;;;;;;;;5108812;28;20703;-74
2022/12/22 05:59:57;;;;;;;0.60;0.60;;;;;;;;;;5108082;28;20169;-74
2022/12/22 06:02:23;;;;;;;0.70;0.70;;;;;;;;;;5108480;28;20246;-76
2022/12/22 06:04:50;;;;;;;0.60;0.60;;;;;;;;;;5110220;28;20201;-74
2022/12/22 06:07:15;;;;;;;0.60;0.60;;;;;;;;;;5109095;28;20234;-78
2022/12/22 06:09:41;;;;;;;0.73;0.73;;;;;;;;;;5109469;28;20230;-75
2022/12/22 06:12:07;;;;;;;0.70;0.70;;;;;;;;;;5108099;28;20255;-75
2022/12/22 06:14:33;;;;;;;0.80;0.80;;;;;;;;;;5108354;28;20193;-76
2022/12/22 06:16:59;;;;;;;0.50;0.50;;;;;;;;;;5108066;28;20181;-76
2022/12/22 06:19:25;;;;;;;0.63;0.63;;;;;;;;;;5108864;28;20176;-79
2022/12/22 06:21:51;;;;;;;0.60;0.60;;;;;;;;;;5108786;28;20181;-77
2022/12/22 06:24:17;;;;;;;0.60;0.60;;;;;;;;;;5108530;28;20609;-76
2022/12/22 06:26:43;;;;;;;0.77;0.77;;;;;;;;;;5109082;28;20641;-78
2022/12/22 06:29:09;;;;;;;0.60;0.60;;;;;;;;;;5104544;28;20575;-77
2022/12/22 06:31:35;;;;;;;0.70;0.70;;;;;;;;;;5098460;28;20289;-77
2022/12/22 06:34:01;;;;;;;0.80;0.80;;;;;;;;;;5096878;28;20232;-77
2022/12/22 06:36:27;;;;;;;0.50;0.50;;;;;;;;;;5098721;28;20177;-76
2022/12/22 06:38:53;;;;;;;0.70;0.70;;;;;;;;;;5097915;28;20220;-76
2022/12/22 06:43:07;;;;;;;0.70;0.70;;;;;;;;;;5094284;28;20181;-77
2022/12/22 06:44:05;;;;;;;0.70;0.70;;;;;;;;;;5087480;28;20202;-77
2022/12/22 06:46:31;;;;;;;0.60;0.60;;;;;;;;;;5087747;28;20650;-77
2022/12/22 06:48:57;;;;;;;0.50;0.50;;;;;;;;;;5087667;28;20184;-77
2022/12/22 06:51:23;;;;;;;0.70;0.70;;;;;;;;;;5087866;28;20245;-77
2022/12/22 06:53:49;;;;;;;0.57;0.57;;;;;;;;;;5087754;28;20200;-76
2022/12/22 06:56:15;;;;;;;0.70;0.70;;;;;;;;;;5091603;28;20189;-78
2022/12/22 06:58:41;;;;;;;0.70;0.70;;;;;;;;;;5090118;28;20269;-77
2022/12/22 07:01:07;;;;;;;0.57;0.57;;;;;;;;;;5089642;28;20178;-78
2022/12/22 07:03:33;;;;;;;0.60;0.60;;;;;;;;;;5076465;28;20201;-78
2022/12/22 07:05:58;;;;;;;0.70;0.70;;;;;;;;;;5074395;28;20174;-78
2022/12/22 07:08:24;;;;;;;0.60;0.60;;;;;;;;;;5074328;28;20178;-77
2022/12/22 07:10:57;;;;;;;0.53;0.53;;;;;;;;;;5076037;28;20311;-76
2022/12/22 07:13:23;;;;;;;0.60;0.60;;;;;;;;;;5076258;28;20287;-76
2022/12/22 07:15:50;;;;;;;0.57;0.57;;;;;;;;;;5073722;28;20178;-76
2022/12/22 07:18:15;;;;;;;0.60;0.60;;;;;;;;;;5074043;28;20178;-76
2022/12/22 07:20:41;;;;;;;0.50;0.50;;;;;;;;;;5073615;28;20179;-76
2022/12/22 07:23:07;;;;;;;0.60;0.60;;;;;;;;;;5073122;28;20198;-76
2022/12/22 07:25:33;;;;;;;0.60;0.60;;;;;;;;;;5073642;28;20200;-76
2022/12/22 07:27:59;;;;;;;0.70;0.70;;;;;;;;;;5073436;28;20476;-76
2022/12/22 07:30:25;;;;;;;0.60;0.60;;;;;;;;;;5073136;28;20182;-76
2022/12/22 07:32:51;;;;;;;0.60;0.60;;;;;;;;;;5072992;28;20198;-76
2022/12/22 07:35:17;;;;;;;0.50;0.50;;;;;;;;;;5073468;28;20643;-79
2022/12/22 07:37:43;;;;;;;0.70;0.70;;;;;;;;;;5073489;28;20668;-77
2022/12/22 07:40:09;;;;;;;0.60;0.60;;;;;;;;;;5073362;28;20212;-77
2022/12/22 07:42:53;;;;;;;0.60;0.60;;;;;;;;;;5072743;28;20202;-76
2022/12/22 07:45:19;;;;;;;0.60;0.60;;;;;;;;;;5073458;28;20231;-77
2022/12/22 07:47:46;;;;;;;0.67;0.67;;;;;;;;;;5073272;28;20266;-77
2022/12/22 07:50:31;;;;;;;0.60;0.60;;;;;;;;;;5073927;28;20174;-76
2022/12/22 07:53:01;;;;;;;0.70;0.70;;;;;;;;;;5072695;28;20376;-76
2022/12/22 07:55:28;;;;;;;0.60;0.60;;;;;;;;;;5072799;28;20262;-76
2022/12/22 07:57:55;;;;;;;0.80;0.80;;;;;;;;;;5073024;28;20197;-76
2022/12/22 08:00:21;;;;;;;0.60;0.60;;;;;;;;;;5072785;28;20580;-77
2022/12/22 08:02:50;;;;;;;0.60;0.60;;;;;;;;;;5072418;28;20182;-76
2022/12/22 08:05:17;;;;;;;0.60;0.60;;;;;;;;;;5072920;28;20182;-77
2022/12/22 08:07:43;;;;;;;0.60;0.60;;;;;;;;;;5072723;28;20232;-77
2022/12/22 08:10:09;;;;;;;0.70;0.70;;;;;;;;;;5072406;28;20534;-76
2022/12/22 08:12:35;;;;;;;0.60;0.60;;;;;;;;;;5071822;28;20555;-76
2022/12/22 08:15:01;;;;;;;0.60;0.60;;;;;;;;;;5071458;28;20189;-76
2022/12/22 08:17:27;;;;;;;0.60;0.60;;;;;;;;;;5072759;28;20182;-77
2022/12/22 08:19:54;;;;;;;0.60;0.60;;;;;;;;;;5072254;28;20227;-76
2022/12/22 08:22:22;;;;;;;0.70;0.70;;;;;;;;;;5072806;28;20181;-76
2022/12/22 08:24:49;;;;;;;0.60;0.60;;;;;;;;;;5092303;28;20204;-76
2022/12/22 08:27:16;;;;;;;0.50;0.50;;;;;;;;;;5092596;28;20189;-76
2022/12/22 08:29:44;;;;;;;0.50;0.50;;;;;;;;;;5092692;28;20216;-77
2022/12/22 08:32:11;;;;;;;0.60;0.60;;;;;;;;;;5091949;28;20213;-76
2022/12/22 08:34:37;;;;;;;0.50;0.50;;;;;;;;;;5089734;28;20194;-76
2022/12/22 08:37:05;;;;;;;0.57;0.57;;;;;;;;;;5078620;28;20189;-78
2022/12/22 08:39:32;;;;;;;0.60;0.60;;;;;;;;;;5079189;28;20177;-76
2022/12/22 08:41:59;;;;;;;0.57;0.57;;;;;;;;;;5082292;28;20265;-79
2022/12/22 08:44:26;;;;;;;0.50;0.50;;;;;;;;;;5082308;28;20700;-76
2022/12/22 08:46:53;;;;;;;0.40;0.40;;;;;;;;;;5080522;28;20635;-77
2022/12/22 08:49:19;;;;;;;0.50;0.50;;;;;;;;;;5081909;28;20203;-75
2022/12/22 08:51:45;;;;;;;0.50;0.50;;;;;;;;;;5081687;28;20206;-76
2022/12/22 08:54:12;;;;;;;0.53;0.53;;;;;;;;;;5091903;28;20271;-75
2022/12/22 08:56:38;;;;;;;0.50;0.50;;;;;;;;;;5092099;28;20186;-76
2022/12/22 08:59:06;;;;;;;0.50;0.50;;;;;;;;;;5091955;28;20178;-75
2022/12/22 09:01:33;;;;;;;0.50;0.50;;;;;;;;;;5091995;28;20186;-77
2022/12/22 09:03:59;;;;;;;0.50;0.50;;;;;;;;;;5091168;28;20670;-76
2022/12/22 09:06:26;;;;;;;0.40;0.40;;;;;;;;;;5091846;28;20182;-78
2022/12/22 09:08:55;;;;;;;0.50;0.50;;;;;;;;;;5092015;28;20174;-76
2022/12/22 09:11:21;;;;;;;0.50;0.50;;;;;;;;;;5091741;28;20224;-76
2022/12/22 09:13:49;;;;;;;0.50;0.50;;;;;;;;;;5091083;28;20272;-76
2022/12/22 09:16:15;;;;;;;0.57;0.57;;;;;;;;;;5091755;28;20182;-77
2022/12/22 09:18:41;;;;;;;0.40;0.40;;;;;;;;;;5091627;28;20630;-76
2022/12/22 09:21:07;;;;;;;0.50;0.50;;;;;;;;;;5091913;28;20177;-76
2022/12/22 09:23:33;;;;;;;0.40;0.40;;;;;;;;;;5091355;28;20200;-75
2022/12/22 09:25:59;;;;;;;0.47;0.47;;;;;;;;;;5091222;28;20176;-75
2022/12/22 09:28:25;;;;;;;0.57;0.57;;;;;;;;;;5091431;28;20264;-75
2022/12/22 09:30:51;;;;;;;0.50;0.50;;;;;;;;;;5091483;28;20233;-75
2022/12/22 09:33:17;;;;;;;0.50;0.50;;;;;;;;;;5090827;28;20250;-75
2022/12/22 09:35:44;;;;;;;0.50;0.50;;;;;;;;;;5091718;28;20180;-75
2022/12/22 09:38:10;;;;;;;0.30;0.30;;;;;;;;;;5090649;28;20839;-75
2022/12/22 09:40:36;;;;;;;0.50;0.50;;;;;;;;;;5091548;28;20174;-76
2022/12/22 09:43:03;;;;;;;0.47;0.47;;;;;;;;;;5090567;28;20682;-75
2022/12/22 09:45:32;;;;;;;0.50;0.50;;;;;;;;;;5072885;28;20174;-75
2022/12/22 09:47:58;;;;;;;0.70;0.70;;;;;;;;;;5071034;28;20187;-75
2022/12/22 09:50:25;;;;;;;0.70;0.70;;;;;;;;;;5071090;28;20655;-75
2022/12/22 09:53:01;;;;;;;0.70;0.70;;;;;;;;;;5070673;28;20173;-74
2022/12/22 09:55:39;;;;;;;0.70;0.70;;;;;;;;;;5071172;28;20174;-75
2022/12/22 09:58:11;;;;;;;0.60;0.60;;;;;;;;;;5070986;28;20170;-74
2022/12/22 10:00:37;;;;;;;0.60;0.60;;;;;;;;;;5071035;28;20636;-75
2022/12/22 10:03:07;;;;;;;0.60;0.60;;;;;;;;;;5070672;28;20198;-73
2022/12/22 10:05:37;;;;;;;0.57;0.57;;;;;;;;;;5071217;28;20182;-74
2022/12/22 10:08:13;;;;;;;0.67;0.67;;;;;;;;;;5070963;28;20182;-74
2022/12/22 10:10:39;;;;;;;0.60;0.60;;;;;;;;;;5070840;28;20255;-74
2022/12/22 10:13:06;;;;;;;0.70;0.70;;;;;;;;;;5070274;28;20273;-75
2022/12/22 10:15:40;;;;;;;0.60;0.60;;;;;;;;;;5071328;28;20183;-74
2022/12/22 10:18:13;;;;;;;0.70;0.70;;;;;;;;;;5070838;28;20590;-75
2022/12/22 10:20:40;;;;;;;0.70;0.70;;;;;;;;;;5075830;28;20278;-74
2022/12/22 10:23:17;;;;;;;0.73;0.73;;;;;;;;;;5070032;28;20194;-74
2022/12/22 10:26:00;;;;;;;0.80;0.80;;;;;;;;;;5070609;28;20262;-76
2022/12/22 10:28:28;;;;;;;0.70;0.70;;;;;;;;;;5070794;28;20170;-75
2022/12/22 10:31:09;;;;;;;0.60;0.60;;;;;;;;;;5070738;28;20264;-74
2022/12/22 10:33:35;;;;;;;0.70;0.70;;;;;;;;;;5070219;28;20631;-74
2022/12/22 10:36:01;;;;;;;0.60;0.60;;;;;;;;;;5070707;28;20187;-74
2022/12/22 10:38:38;;;;;;;0.60;0.60;;;;;;;;;;5073171;28;20174;-75
2022/12/22 10:41:06;;;;;;;0.80;0.80;;;;;;;;;;5074709;28;20189;-73
2022/12/22 10:43:34;;;;;;;0.60;0.60;;;;;;;;;;5078152;28;20206;-74
2022/12/22 10:46:01;;;;;;;0.70;0.70;;;;;;;;;;5082916;28;20163;-74
2022/12/22 10:48:33;;;;;;;0.70;0.70;;;;;;;;;;5084413;28;20316;-73
2022/12/22 10:50:59;;;;;;;0.70;0.70;;;;;;;;;;5085070;28;20210;-75
2022/12/22 10:53:46;;;;;;;0.60;0.60;;;;;;;;;;5082600;28;20201;-74
2022/12/22 10:56:19;;;;;;;0.67;0.67;;;;;;;;;;5083791;28;20189;-75
2022/12/22 10:58:47;;;;;;;0.67;0.67;;;;;;;;;;5082954;28;20174;-75
2022/12/22 11:01:22;;;;;;;0.50;0.50;;;;;;;;;;5083568;28;20173;-75
2022/12/22 11:03:47;;;;;;;0.67;0.67;;;;;;;;;;5082832;28;20192;-74
2022/12/22 11:06:13;;;;;;;0.60;0.60;;;;;;;;;;5083761;28;20170;-75
2022/12/22 11:08:39;;;;;;;0.70;0.70;;;;;;;;;;5084935;28;20185;-76
2022/12/22 11:11:24;;;;;;;0.70;0.70;;;;;;;;;;5082763;28;20202;-74
2022/12/22 11:13:56;;;;;;;0.70;0.70;;;;;;;;;;5082857;28;20224;-75
2022/12/22 11:16:29;;;;;;;0.63;0.63;;;;;;;;;;5082574;28;20738;-74
2022/12/22 11:19:07;;;;;;;0.70;0.70;;;;;;;;;;5083073;28;20174;-74
2022/12/22 11:21:36;;;;;;;0.60;0.60;;;;;;;;;;5083856;28;20775;-74
2022/12/22 11:24:15;;;;;;;0.70;0.70;;;;;;;;;;5081709;28;20256;-74
2022/12/22 11:26:55;;;;;;;0.60;0.60;;;;;;;;;;5082527;28;20261;-74
2022/12/22 11:29:21;;;;;;;0.70;0.70;;;;;;;;;;5082338;28;20186;-74
2022/12/22 11:32:14;;;;;;;0.60;0.60;;;;;;;;;;5087646;28;20574;-74
2022/12/22 11:34:52;;;;;;;0.70;0.70;;;;;;;;;;5093781;28;20708;-74
2022/12/22 11:37:23;;;;;;;0.63;0.63;;;;;;;;;;5094033;28;20185;-74
2022/12/22 11:39:53;;;;;;;0.60;0.60;;;;;;;;;;5095603;28;20166;-73
2022/12/22 11:42:19;;;;;;;0.67;0.67;;;;;;;;;;5095748;28;20181;-74
2022/12/22 11:45:04;;;;;;;0.63;0.63;;;;;;;;;;5094176;28;20622;-73
2022/12/22 11:47:53;;;;;;;0.60;0.60;;;;;;;;;;5093777;28;20257;-74
2022/12/22 11:50:36;;;;;;;0.70;0.70;;;;;;;;;;5090224;28;20614;-76
2022/12/22 11:53:20;;;;;;;0.63;0.63;;;;;;;;;;5092837;28;20690;-74
2022/12/22 11:56:04;;;;;;;0.63;0.63;;;;;;;;;;5093365;28;20626;-74
2022/12/22 11:58:41;;;;;;;0.60;0.60;;;;;;;;;;5093547;28;20204;-74
2022/12/22 12:01:17;;;;;;;0.60;0.60;;;;;;;;;;5093222;28;20178;-75
2022/12/22 12:03:54;;;;;;;0.50;0.50;;;;;;;;;;5092941;28;20220;-74
2022/12/22 12:06:26;;;;;;;0.70;0.70;;;;;;;;;;5093414;28;20174;-74
2022/12/22 12:09:07;;;;;;;0.50;0.50;;;;;;;;;;5093007;28;20215;-74
2022/12/22 12:11:41;;;;;;;0.50;0.50;;;;;;;;;;5093123;28;20206;-73
2022/12/22 12:14:12;;;;;;;0.60;0.60;;;;;;;;;;5092386;28;20193;-74
2022/12/22 12:16:40;;;;;;;0.57;0.57;;;;;;;;;;5093370;28;20177;-74
2022/12/22 12:19:06;;;;;;;0.60;0.60;;;;;;;;;;5092895;28;20654;-74
2022/12/22 12:21:35;;;;;;;0.70;0.70;;;;;;;;;;5092827;28;20178;-74
2022/12/22 12:24:01;;;;;;;0.60;0.60;;;;;;;;;;5092183;28;20284;-74
2022/12/22 12:26:47;;;;;;;0.60;0.60;;;;;;;;;;5092668;28;20320;-75
2022/12/22 12:29:18;;;;;;;0.67;0.67;;;;;;;;;;5092334;28;20296;-75
2022/12/22 12:32:05;;;;;;;0.50;0.50;;;;;;;;;;5092776;28;20220;-76
2022/12/22 12:34:33;;;;;;;0.60;0.60;;;;;;;;;;5092238;28;20251;-76
2022/12/22 12:37:14;;;;;;;0.40;0.40;;;;;;;;;;5092625;28;20530;-76
2022/12/22 12:39:46;;;;;;;0.50;0.50;;;;;;;;;;5092130;28;20185;-75
2022/12/22 12:42:28;;;;;;;0.40;0.40;;;;;;;;;;5091813;28;20178;-75
2022/12/22 12:44:55;;;;;;;0.40;0.40;;;;;;;;;;5092159;28;20194;-76
2022/12/22 12:47:23;;;;;;;0.60;0.60;;;;;;;;;;5092110;28;20166;-75
2022/12/22 12:49:53;;;;;;;0.50;0.50;;;;;;;;;;5092325;28;20223;-76
2022/12/22 12:52:39;;;;;;;0.50;0.50;;;;;;;;;;5091670;28;20222;-75
2022/12/22 12:55:20;;;;;;;0.67;0.67;;;;;;;;;;5091850;28;20165;-75
2022/12/22 12:57:47;;;;;;;0.60;0.60;;;;;;;;;;5091907;28;20178;-75
2022/12/22 13:00:33;;;;;;;0.60;0.60;;;;;;;;;;5091499;28;20170;-77
2022/12/22 13:03:09;;;;;;;0.60;0.60;;;;;;;;;;5091297;28;20608;-75
2022/12/22 13:05:52;;;;;;;0.53;0.53;;;;;;;;;;5091768;28;20514;-76
2022/12/22 13:08:22;;;;;;;0.50;0.50;;;;;;;;;;5091965;28;20170;-77
2022/12/22 13:11:08;;;;;;;0.47;0.47;;;;;;;;;;5087463;28;20202;-75
2022/12/22 13:13:34;;;;;;;0.50;0.50;;;;;;;;;;5089752;28;20272;-75
2022/12/22 13:16:03;;;;;;;0.50;0.50;;;;;;;;;;5091724;28;20698;-76
2022/12/22 13:18:32;;;;;;;0.50;0.50;;;;;;;;;;5091545;28;20174;-75
2022/12/22 13:21:02;;;;;;;0.60;0.60;;;;;;;;;;5091586;28;20235;-76
2022/12/22 13:23:29;;;;;;;0.47;0.47;;;;;;;;;;5091009;28;20198;-75
2022/12/22 13:25:59;;;;;;;0.60;0.60;;;;;;;;;;5091644;28;20174;-76
2022/12/22 13:28:26;;;;;;;0.47;0.47;;;;;;;;;;5091591;28;20169;-75
2022/12/22 13:31:13;;;;;;;0.60;0.60;;;;;;;;;;5091380;28;20212;-75
2022/12/22 13:33:41;;;;;;;0.70;0.70;;;;;;;;;;5091101;28;20197;-75
2022/12/22 13:36:15;;;;;;;0.50;0.50;;;;;;;;;;5091498;28;20193;-75
2022/12/22 13:38:41;;;;;;;0.60;0.60;;;;;;;;;;5091542;28;20679;-76
2022/12/22 13:41:15;;;;;;;0.50;0.50;;;;;;;;;;5091481;28;20205;-76
2022/12/22 13:43:42;;;;;;;0.60;0.60;;;;;;;;;;5091044;28;20190;-76
2022/12/22 13:46:08;;;;;;;0.63;0.63;;;;;;;;;;5091501;28;20205;-77
2022/12/22 13:48:38;;;;;;;0.60;0.60;;;;;;;;;;5091385;28;20188;-76
2022/12/22 13:51:08;;;;;;;0.60;0.60;;;;;;;;;;5091181;28;20271;-76
2022/12/22 13:53:38;;;;;;;0.50;0.50;;;;;;;;;;5090966;28;20201;-77
2022/12/22 13:56:11;;;;;;;0.60;0.60;;;;;;;;;;5089148;28;20197;-76
2022/12/22 13:58:39;;;;;;;0.60;0.60;;;;;;;;;;5082367;28;20175;-78
2022/12/22 14:01:11;;;;;;;0.60;0.60;;;;;;;;;;5094950;28;20185;-77
2022/12/22 14:03:38;;;;;;;0.60;0.60;;;;;;;;;;5084164;28;20213;-77
2022/12/22 14:06:22;;;;;;;0.60;0.60;;;;;;;;;;5078117;28;20178;-76
2022/12/22 14:08:48;;;;;;;0.60;0.60;;;;;;;;;;5091349;28;20273;-77
2022/12/22 14:11:14;;;;;;;0.50;0.50;;;;;;;;;;5078374;28;20280;-77
2022/12/22 14:13:40;;;;;;;0.60;0.60;;;;;;;;;;5074159;28;20247;-76
2022/12/22 14:16:06;;;;;;;0.70;0.70;;;;;;;;;;5090773;28;20212;-76
2022/12/22 14:18:33;;;;;;;0.60;0.60;;;;;;;;;;5093897;28;20189;-75
2022/12/22 14:20:59;;;;;;;0.60;0.60;;;;;;;;;;5094583;28;20288;-76
2022/12/22 14:23:25;;;;;;;0.70;0.70;;;;;;;;;;5093956;28;20669;-79
2022/12/22 14:25:53;;;;;;;0.63;0.63;;;;;;;;;;5094482;28;20259;-76
2022/12/22 14:28:22;;;;;;;0.60;0.60;;;;;;;;;;5094615;28;20178;-76
2022/12/22 14:30:50;;;;;;;0.50;0.50;;;;;;;;;;5093921;28;20629;-75
2022/12/22 14:33:17;;;;;;;0.60;0.60;;;;;;;;;;5093197;28;20288;-74
2022/12/22 14:35:43;;;;;;;0.60;0.60;;;;;;;;;;5083485;28;20273;-73
2022/12/22 14:38:15;;;;;;;0.60;0.60;;;;;;;;;;5074543;28;20260;-76
2022/12/22 14:40:42;;;;;;;0.70;0.70;;;;;;;;;;5076047;28;20170;-76
2022/12/22 14:43:22;;;;;;;0.53;0.53;;;;;;;;;;5075973;28;20202;-75
2022/12/22 14:45:49;;;;;;;0.60;0.60;;;;;;;;;;5080855;28;20177;-75
2022/12/22 14:48:21;;;;;;;0.70;0.70;;;;;;;;;;5094716;28;20220;-75
2022/12/22 14:50:48;;;;;;;0.60;0.60;;;;;;;;;;5094089;28;20622;-75
2022/12/22 14:53:15;;;;;;;0.60;0.60;;;;;;;;;;5093992;28;20197;-75
2022/12/22 14:55:42;;;;;;;0.60;0.60;;;;;;;;;;5094266;28;20569;-74
2022/12/22 14:58:08;;;;;;;0.57;0.57;;;;;;;;;;5093512;28;20177;-75
2022/12/22 15:00:35;;;;;;;0.67;0.67;;;;;;;;;;5095043;28;20190;-75
2022/12/22 15:03:04;;;;;;;0.53;0.53;;;;;;;;;;5086296;28;20201;-75
2022/12/22 15:05:36;;;;;;;0.60;0.60;;;;;;;;;;5089353;28;20495;-76
2022/12/22 15:08:02;;;;;;;0.60;0.60;;;;;;;;;;5094235;28;20173;-76
2022/12/22 15:10:33;;;;;;;0.70;0.70;;;;;;;;;;5094149;28;20174;-76
2022/12/22 15:13:02;;;;;;;0.70;0.70;;;;;;;;;;5093520;28;20277;-76
2022/12/22 15:15:30;;;;;;;0.70;0.70;;;;;;;;;;5094226;28;20174;-76
2022/12/22 15:17:56;;;;;;;0.70;0.70;;;;;;;;;;5094195;28;20169;-77
2022/12/22 15:20:24;;;;;;;0.70;0.70;;;;;;;;;;5094407;28;20233;-76
2022/12/22 15:22:50;;;;;;;0.73;0.73;;;;;;;;;;5093164;28;20620;-76
2022/12/22 15:25:18;;;;;;;0.70;0.70;;;;;;;;;;5104122;28;20550;-75
2022/12/22 15:27:44;;;;;;;0.70;0.70;;;;;;;;;;5114022;28;20173;-76
2022/12/22 15:30:12;;;;;;;0.80;0.80;;;;;;;;;;5114134;28;20177;-75
2022/12/22 15:32:38;;;;;;;0.70;0.70;;;;;;;;;;5113681;28;20262;-76
2022/12/22 15:35:11;;;;;;;0.70;0.70;;;;;;;;;;5114115;28;20174;-77
2022/12/22 15:37:37;;;;;;;0.80;0.80;;;;;;;;;;5114112;28;20169;-75
2022/12/22 15:40:03;;;;;;;0.70;0.70;;;;;;;;;;5113784;28;20173;-76
2022/12/22 15:42:29;;;;;;;0.77;0.77;;;;;;;;;;5113570;27;20169;-75
2022/12/22 15:44:55;;;;;;;0.70;0.70;;;;;;;;;;5113854;28;20683;-76
2022/12/22 15:47:21;;;;;;;0.60;0.60;;;;;;;;;;5113708;28;20648;-75
2022/12/22 15:49:46;;;;;;;0.70;0.70;;;;;;;;;;5113934;27;20177;-76
2022/12/22 15:52:13;;;;;;;0.70;0.70;;;;;;;;;;5101779;28;20889;-77
2022/12/22 15:54:39;;;;;;;0.70;0.70;;;;;;;;;;5078836;28;20608;-76
2022/12/22 15:57:05;;;;;;;0.60;0.60;;;;;;;;;;5075987;28;20101;-76
2022/12/22 15:59:31;;;;;;;0.70;0.70;;;;;;;;;;5078943;28;20205;-76
2022/12/22 16:01:57;;;;;;;0.70;0.70;;;;;;;;;;5093166;28;20177;-74
2022/12/22 16:04:24;;;;;;;0.70;0.70;;;;;;;;;;5087817;28;20200;-75
2022/12/22 16:06:50;;;;;;;0.70;0.70;;;;;;;;;;5110077;28;20649;-75
2022/12/22 16:09:19;;;;;;;0.70;0.70;;;;;;;;;;5092498;28;20260;-75
2022/12/22 16:11:46;;;;;;;0.60;0.60;;;;;;;;;;5091438;28;20254;-76
2022/12/22 16:14:12;;;;;;;0.60;0.60;;;;;;;;;;5092509;28;20290;-75
2022/12/22 16:16:40;;;;;;;0.80;0.80;;;;;;;;;;5093564;28;20268;-74
2022/12/22 16:19:08;;;;;;;0.70;0.70;;;;;;;;;;5094092;28;20182;-75
2022/12/22 16:21:34;;;;;;;0.60;0.60;;;;;;;;;;5076751;28;20232;-75
2022/12/22 16:24:02;;;;;;;0.60;0.60;;;;;;;;;;5071972;28;20329;-75
2022/12/22 16:26:28;;;;;;;0.73;0.73;;;;;;;;;;5090555;28;20229;-77
2022/12/22 16:28:54;;;;;;;0.60;0.60;;;;;;;;;;5086714;28;20561;-74
2022/12/22 16:31:21;;;;;;;0.60;0.60;;;;;;;;;;5071698;28;20213;-74
2022/12/22 16:33:47;;;;;;;0.70;0.70;;;;;;;;;;5070902;28;20669;-75
2022/12/22 16:36:13;;;;;;;0.60;0.60;;;;;;;;;;5073439;28;20183;-74
2022/12/22 16:38:40;;;;;;;0.77;0.77;;;;;;;;;;5088685;28;20182;-75
2022/12/22 16:41:06;;;;;;;0.67;0.67;;;;;;;;;;5092475;28;20254;-74
2022/12/22 16:43:34;;;;;;;0.60;0.60;;;;;;;;;;5091966;28;20750;-75
2022/12/22 16:46:00;;;;;;;0.80;0.80;;;;;;;;;;5093026;28;20189;-74
2022/12/22 16:48:46;;;;;;;0.50;0.50;;;;;;;;;;5091825;28;20182;-75
2022/12/22 16:51:18;;;;;;;0.70;0.70;;;;;;;;;;5091866;28;20218;-75
2022/12/22 16:53:44;;;;;;;0.70;0.70;;;;;;;;;;5083056;28;20687;-76
2022/12/22 16:56:13;;;;;;;0.80;0.80;;;;;;;;;;5073870;28;20182;-75
2022/12/22 16:58:39;;;;;;;0.70;0.70;;;;;;;;;;5091913;28;20202;-75
2022/12/22 17:01:05;;;;;;;0.80;0.80;;;;;;;;;;5091489;28;20239;-76
2022/12/22 17:03:31;;;;;;;0.70;0.70;;;;;;;;;;5090715;28;20273;-75
2022/12/22 17:05:59;;;;;;;0.70;0.70;;;;;;;;;;5091502;28;20231;-76
2022/12/22 17:08:26;;;;;;;0.60;0.60;;;;;;;;;;5091704;28;20693;-75
2022/12/22 17:10:53;;;;;;;0.60;0.60;;;;;;;;;;5091587;28;20216;-76
2022/12/22 17:13:19;;;;;;;0.70;0.70;;;;;;;;;;5090838;28;20221;-76
2022/12/22 17:15:45;;;;;;;0.70;0.70;;;;;;;;;;5091195;28;20177;-75
2022/12/22 17:18:16;;;;;;;0.60;0.60;;;;;;;;;;5091147;28;20712;-76
2022/12/22 17:20:43;;;;;;;0.80;0.80;;;;;;;;;;5089870;28;20174;-75
2022/12/22 17:23:15;;;;;;;0.67;0.67;;;;;;;;;;5069629;28;20207;-75
2022/12/22 17:25:41;;;;;;;0.70;0.70;;;;;;;;;;5070888;28;20175;-76
2022/12/22 17:28:09;;;;;;;0.70;0.70;;;;;;;;;;5084470;28;20170;-76
2022/12/22 17:30:35;;;;;;;0.70;0.70;;;;;;;;;;5084639;28;20205;-75
2022/12/22 17:33:01;;;;;;;0.70;0.70;;;;;;;;;;5070100;28;20638;-75
2022/12/22 17:35:32;;;;;;;0.70;0.70;;;;;;;;;;5070431;28;20179;-75
2022/12/22 17:37:58;;;;;;;0.70;0.70;;;;;;;;;;5072019;28;20174;-76
2022/12/22 17:40:27;;;;;;;0.67;0.67;;;;;;;;;;5070382;28;20178;-75
2022/12/22 17:42:53;;;;;;;0.80;0.80;;;;;;;;;;5069788;28;20206;-75
2022/12/22 17:45:20;;;;;;;0.60;0.60;;;;;;;;;;5070406;28;20182;-76
2022/12/22 17:47:46;;;;;;;0.70;0.70;;;;;;;;;;5070398;28;20256;-76
2022/12/22 17:50:14;;;;;;;0.70;0.70;;;;;;;;;;5070523;28;20209;-75
2022/12/22 17:52:40;;;;;;;0.70;0.70;;;;;;;;;;5069836;28;20229;-76
2022/12/22 17:55:16;;;;;;;0.70;0.70;;;;;;;;;;5070337;28;20194;-75
2022/12/22 17:57:42;;;;;;;0.60;0.60;;;;;;;;;;5070203;28;20166;-75
2022/12/22 18:00:15;;;;;;;0.73;0.73;;;;;;;;;;5070547;28;20538;-75
2022/12/22 18:02:41;;;;;;;0.70;0.70;;;;;;;;;;5070173;28;20182;-75
2022/12/22 18:05:11;;;;;;;0.80;0.80;;;;;;;;;;5071105;28;20667;-77
2022/12/22 18:07:37;;;;;;;0.60;0.60;;;;;;;;;;5070357;28;20170;-76
2022/12/22 18:10:03;;;;;;;0.70;0.70;;;;;;;;;;5070094;28;20181;-75
2022/12/22 18:12:29;;;;;;;0.90;0.90;;;;;;;;;;5075710;28;20217;-75
2022/12/22 18:14:55;;;;;;;0.60;0.60;;;;;;;;;;5090137;28;20292;-77
2022/12/22 18:17:25;;;;;;;0.70;0.70;;;;;;;;;;5090648;28;20181;-76
2022/12/22 18:19:52;;;;;;;0.60;0.60;;;;;;;;;;5090461;28;20216;-76
2022/12/22 18:22:22;;;;;;;0.60;0.60;;;;;;;;;;5089392;28;20235;-76
2022/12/22 18:24:49;;;;;;;0.60;0.60;;;;;;;;;;5089824;28;20225;-76
2022/12/22 18:27:16;;;;;;;0.70;0.70;;;;;;;;;;5090140;28;20530;-75